sensor_id;sensor_type;location;lat;lon;timestamp;temperature;humidity
12164;DHT22;6145;50.192;10.064;2024-02-14T00:01:25;4.20;99.90
12164;DHT22;6145;50.192;10.064;2024-02-14T00:03:52;4.30;99.90
12164;DHT22;6145;50.192;10.064;2024-02-14T00:06:18;4.30;99.90
12164;DHT22;6145;50.192;10.064;2024-02-14T00:08:45;4.30;99.90
12164;DHT22;6145;50.192;10.064;2024-02-14T00:11:12;4.20;99.90
12164;DHT22;6145;50.192;10.064;2024-02-14T00:13:39;4.20;99.90
12164;DHT22;6145;50.192;10.064;2024-02-14T00:16:06;4.30;99.90
12164;DHT22;6145;50.192;10.064;2024-02-14T00:18:35;4.30;99.90
12164;DHT22;6145;50.192;10.064;2024-02-14T00:21:01;4.30;99.90
12164;DHT22;6145;50.192;10.064;2024-02-14T00:23:28;4.30;99.90
12164;DHT22;6145;50.192;10.064;2024-02-14T00:25:55;4.30;99.90
12164;DHT22;6145;50.192;10.064;2024-02-14T00:28:22;4.20;99.90
12164;DHT22;6145;50.192;10.064;2024-02-14T00:30:49;4.20;99.90
12164;DHT22;6145;50.192;10.064;2024-02-14T00:33:16;4.20;99.90
12164;DHT22;6145;50.192;10.064;2024-02-14T00:35:45;4.20;99.90
12164;DHT22;6145;50.192;10.064;2024-02-14T00:38:12;4.20;99.90
12164;DHT22;6145;50.192;10.064;2024-02-14T00:40:39;4.20;99.90
12164;DHT22;6145;50.192;10.064;2024-02-14T00:43:06;4.20;99.90
12164;DHT22;6145;50.192;10.064;2024-02-14T00:45:32;4.20;99.90
12164;DHT22;6145;50.192;10.064;2024-02-14T00:48:01;4.20;99.90
12164;DHT22;6145;50.192;10.064;2024-02-14T00:50:28;4.20;99.90
12164;DHT22;6145;50.192;10.064;2024-02-14T00:52:56;4.20;99.90
12164;DHT22;6145;50.192;10.064;2024-02-14T00:55:22;4.30;99.90
12164;DHT22;6145;50.192;10.064;2024-02-14T00:57:49;4.30;99.90
12164;DHT22;6145;50.192;10.064;2024-02-14T01:00:16;4.30;99.90
12164;DHT22;6145;50.192;10.064;2024-02-14T01:02:43;4.30;99.90
12164;DHT22;6145;50.192;10.064;2024-02-14T01:05:10;4.30;99.90
12164;DHT22;6145;50.192;10.064;2024-02-14T01:07:37;4.30;99.90
12164;DHT22;6145;50.192;10.064;2024-02-14T01:10:06;4.40;99.90
12164;DHT22;6145;50.192;10.064;2024-02-14T01:12:33;4.40;99.90
12164;DHT22;6145;50.192;10.064;2024-02-14T01:14:59;4.40;99.90
12164;DHT22;6145;50.192;10.064;2024-02-14T01:17:26;4.50;99.90
12164;DHT22;6145;50.192;10.064;2024-02-14T01:19:53;4.40;99.90
12164;DHT22;6145;50.192;10.064;2024-02-14T01:22:20;4.40;99.90
12164;DHT22;6145;50.192;10.064;2024-02-14T01:24:47;4.40;99.90
12164;DHT22;6145;50.192;10.064;2024-02-14T01:27:15;4.40;99.90
12164;DHT22;6145;50.192;10.064;2024-02-14T01:29:42;4.40;99.90
12164;DHT22;6145;50.192;10.064;2024-02-14T01:32:09;4.40;99.90
12164;DHT22;6145;50.192;10.064;2024-02-14T01:34:36;4.40;99.90
12164;DHT22;6145;50.192;10.064;2024-02-14T01:37:03;4.40;99.90
12164;DHT22;6145;50.192;10.064;2024-02-14T01:39:29;4.40;99.90
12164;DHT22;6145;50.192;10.064;2024-02-14T01:41:56;4.40;99.90
12164;DHT22;6145;50.192;10.064;2024-02-14T01:44:24;4.40;99.90
12164;DHT22;6145;50.192;10.064;2024-02-14T01:46:51;4.50;99.90
12164;DHT22;6145;50.192;10.064;2024-02-14T01:49:18;4.40;99.90
12164;DHT22;6145;50.192;10.064;2024-02-14T01:51:46;4.50;99.90
12164;DHT22;6145;50.192;10.064;2024-02-14T01:54:13;4.50;99.90
12164;DHT22;6145;50.192;10.064;2024-02-14T01:56:43;4.40;99.90
12164;DHT22;6145;50.192;10.064;2024-02-14T01:59:10;4.40;99.90
12164;DHT22;6145;50.192;10.064;2024-02-14T02:01:38;4.40;99.90
12164;DHT22;6145;50.192;10.064;2024-02-14T02:04:05;4.40;99.90
12164;DHT22;6145;50.192;10.064;2024-02-14T02:06:33;4.40;99.90
12164;DHT22;6145;50.192;10.064;2024-02-14T02:09:00;4.40;99.90
12164;DHT22;6145;50.192;10.064;2024-02-14T02:11:27;4.40;99.90
12164;DHT22;6145;50.192;10.064;2024-02-14T02:13:53;4.40;99.90
12164;DHT22;6145;50.192;10.064;2024-02-14T02:16:20;4.40;99.90
12164;DHT22;6145;50.192;10.064;2024-02-14T02:18:49;4.40;99.90
12164;DHT22;6145;50.192;10.064;2024-02-14T02:21:15;4.40;99.90
12164;DHT22;6145;50.192;10.064;2024-02-14T02:23:46;4.40;99.90
12164;DHT22;6145;50.192;10.064;2024-02-14T02:26:13;4.40;99.90
12164;DHT22;6145;50.192;10.064;2024-02-14T02:28:40;4.30;99.90
12164;DHT22;6145;50.192;10.064;2024-02-14T02:31:07;4.30;99.90
12164;DHT22;6145;50.192;10.064;2024-02-14T02:33:34;4.30;99.90
12164;DHT22;6145;50.192;10.064;2024-02-14T02:36:01;4.30;99.90
12164;DHT22;6145;50.192;10.064;2024-02-14T02:38:28;4.50;99.90
12164;DHT22;6145;50.192;10.064;2024-02-14T02:40:56;4.20;99.90
12164;DHT22;6145;50.192;10.064;2024-02-14T02:43:23;4.30;99.90
12164;DHT22;6145;50.192;10.064;2024-02-14T02:45:50;4.30;99.90
12164;DHT22;6145;50.192;10.064;2024-02-14T02:48:16;4.30;99.90
12164;DHT22;6145;50.192;10.064;2024-02-14T02:50:45;4.40;99.90
12164;DHT22;6145;50.192;10.064;2024-02-14T02:53:14;4.40;99.90
12164;DHT22;6145;50.192;10.064;2024-02-14T02:55:41;4.40;99.90
12164;DHT22;6145;50.192;10.064;2024-02-14T02:58:10;4.40;99.90
12164;DHT22;6145;50.192;10.064;2024-02-14T03:00:36;4.40;99.90
12164;DHT22;6145;50.192;10.064;2024-02-14T03:03:03;4.50;99.90
12164;DHT22;6145;50.192;10.064;2024-02-14T03:05:33;4.50;99.90
12164;DHT22;6145;50.192;10.064;2024-02-14T03:08:00;4.60;99.90
12164;DHT22;6145;50.192;10.064;2024-02-14T03:10:27;4.60;99.90
12164;DHT22;6145;50.192;10.064;2024-02-14T03:12:55;4.60;99.90
12164;DHT22;6145;50.192;10.064;2024-02-14T03:15:23;4.70;99.90
12164;DHT22;6145;50.192;10.064;2024-02-14T03:17:51;4.60;99.90
12164;DHT22;6145;50.192;10.064;2024-02-14T03:20:18;4.60;99.90
12164;DHT22;6145;50.192;10.064;2024-02-14T03:22:45;4.60;99.90
12164;DHT22;6145;50.192;10.064;2024-02-14T03:25:13;4.70;99.90
12164;DHT22;6145;50.192;10.064;2024-02-14T03:27:41;4.70;99.90
12164;DHT22;6145;50.192;10.064;2024-02-14T03:30:09;4.70;99.90
12164;DHT22;6145;50.192;10.064;2024-02-14T03:32:37;4.70;99.90
12164;DHT22;6145;50.192;10.064;2024-02-14T03:35:04;4.70;99.90
12164;DHT22;6145;50.192;10.064;2024-02-14T03:37:32;4.70;99.90
12164;DHT22;6145;50.192;10.064;2024-02-14T03:39:59;4.60;99.90
12164;DHT22;6145;50.192;10.064;2024-02-14T03:42:25;4.60;99.90
12164;DHT22;6145;50.192;10.064;2024-02-14T03:44:52;4.60;99.90
12164;DHT22;6145;50.192;10.064;2024-02-14T03:47:25;4.60;99.90
12164;DHT22;6145;50.192;10.064;2024-02-14T03:49:53;4.60;99.90
12164;DHT22;6145;50.192;10.064;2024-02-14T03:52:20;4.60;99.90
12164;DHT22;6145;50.192;10.064;2024-02-14T03:54:48;4.60;99.90
12164;DHT22;6145;50.192;10.064;2024-02-14T03:57:15;4.70;99.90
12164;DHT22;6145;50.192;10.064;2024-02-14T03:59:43;4.70;99.90
12164;DHT22;6145;50.192;10.064;2024-02-14T04:02:10;4.70;99.90
12164;DHT22;6145;50.192;10.064;2024-02-14T04:04:37;4.70;99.90
12164;DHT22;6145;50.192;10.064;2024-02-14T04:07:05;4.80;99.90
12164;DHT22;6145;50.192;10.064;2024-02-14T04:09:34;4.80;99.90
12164;DHT22;6145;50.192;10.064;2024-02-14T04:12:00;4.80;99.90
12164;DHT22;6145;50.192;10.064;2024-02-14T04:14:27;4.80;99.90
12164;DHT22;6145;50.192;10.064;2024-02-14T04:16:54;4.80;99.90
12164;DHT22;6145;50.192;10.064;2024-02-14T04:19:21;4.80;99.90
12164;DHT22;6145;50.192;10.064;2024-02-14T04:21:48;4.90;99.90
12164;DHT22;6145;50.192;10.064;2024-02-14T04:24:16;4.90;99.90
12164;DHT22;6145;50.192;10.064;2024-02-14T04:26:43;4.90;99.90
12164;DHT22;6145;50.192;10.064;2024-02-14T04:29:10;4.90;99.90
12164;DHT22;6145;50.192;10.064;2024-02-14T04:31:37;5.00;99.90
12164;DHT22;6145;50.192;10.064;2024-02-14T04:34:03;5.00;99.90
12164;DHT22;6145;50.192;10.064;2024-02-14T04:36:33;5.00;99.90
12164;DHT22;6145;50.192;10.064;2024-02-14T04:39:00;5.00;99.90
12164;DHT22;6145;50.192;10.064;2024-02-14T04:41:29;5.20;99.90
12164;DHT22;6145;50.192;10.064;2024-02-14T04:43:56;5.10;99.90
12164;DHT22;6145;50.192;10.064;2024-02-14T04:46:23;5.10;99.90
12164;DHT22;6145;50.192;10.064;2024-02-14T04:48:50;5.10;99.90
12164;DHT22;6145;50.192;10.064;2024-02-14T04:51:16;5.20;99.90
12164;DHT22;6145;50.192;10.064;2024-02-14T04:53:43;5.10;99.90
12164;DHT22;6145;50.192;10.064;2024-02-14T04:56:10;5.10;99.90
12164;DHT22;6145;50.192;10.064;2024-02-14T04:58:38;5.10;99.90
12164;DHT22;6145;50.192;10.064;2024-02-14T05:01:05;5.10;99.90
12164;DHT22;6145;50.192;10.064;2024-02-14T05:03:32;5.10;99.90
12164;DHT22;6145;50.192;10.064;2024-02-14T05:05:59;5.30;99.90
12164;DHT22;6145;50.192;10.064;2024-02-14T05:08:28;5.20;99.90
12164;DHT22;6145;50.192;10.064;2024-02-14T05:10:54;5.20;99.90
12164;DHT22;6145;50.192;10.064;2024-02-14T05:13:21;5.20;99.90
12164;DHT22;6145;50.192;10.064;2024-02-14T05:15:50;5.20;99.90
12164;DHT22;6145;50.192;10.064;2024-02-14T05:18:17;5.20;99.90
12164;DHT22;6145;50.192;10.064;2024-02-14T05:20:44;5.30;99.90
12164;DHT22;6145;50.192;10.064;2024-02-14T05:23:10;5.30;99.90
12164;DHT22;6145;50.192;10.064;2024-02-14T05:25:37;5.30;99.90
12164;DHT22;6145;50.192;10.064;2024-02-14T05:28:05;5.40;99.90
12164;DHT22;6145;50.192;10.064;2024-02-14T05:30:32;5.30;99.90
12164;DHT22;6145;50.192;10.064;2024-02-14T05:33:00;5.30;99.90
12164;DHT22;6145;50.192;10.064;2024-02-14T05:35:26;5.20;99.90
12164;DHT22;6145;50.192;10.064;2024-02-14T05:37:53;5.20;99.90
12164;DHT22;6145;50.192;10.064;2024-02-14T05:40:21;5.20;99.90
12164;DHT22;6145;50.192;10.064;2024-02-14T05:42:48;5.20;99.90
12164;DHT22;6145;50.192;10.064;2024-02-14T05:45:14;5.20;99.90
12164;DHT22;6145;50.192;10.064;2024-02-14T05:47:42;5.30;99.90
12164;DHT22;6145;50.192;10.064;2024-02-14T05:50:10;5.30;99.90
12164;DHT22;6145;50.192;10.064;2024-02-14T05:52:38;5.40;99.90
12164;DHT22;6145;50.192;10.064;2024-02-14T05:55:05;5.40;99.90
12164;DHT22;6145;50.192;10.064;2024-02-14T05:57:34;5.40;99.90
12164;DHT22;6145;50.192;10.064;2024-02-14T06:00:00;5.50;99.90
12164;DHT22;6145;50.192;10.064;2024-02-14T06:02:28;5.50;99.90
12164;DHT22;6145;50.192;10.064;2024-02-14T06:04:55;5.50;99.90
12164;DHT22;6145;50.192;10.064;2024-02-14T06:07:23;5.50;99.90
12164;DHT22;6145;50.192;10.064;2024-02-14T06:09:50;5.50;99.90
12164;DHT22;6145;50.192;10.064;2024-02-14T06:12:16;5.50;99.90
12164;DHT22;6145;50.192;10.064;2024-02-14T06:14:43;5.50;99.90
12164;DHT22;6145;50.192;10.064;2024-02-14T06:17:10;5.50;99.90
12164;DHT22;6145;50.192;10.064;2024-02-14T06:19:37;5.50;99.90
12164;DHT22;6145;50.192;10.064;2024-02-14T06:22:04;5.50;99.90
12164;DHT22;6145;50.192;10.064;2024-02-14T06:24:32;5.50;99.90
12164;DHT22;6145;50.192;10.064;2024-02-14T06:26:59;5.50;99.90
12164;DHT22;6145;50.192;10.064;2024-02-14T06:29:25;5.60;99.90
12164;DHT22;6145;50.192;10.064;2024-02-14T06:31:52;5.60;99.90
12164;DHT22;6145;50.192;10.064;2024-02-14T06:34:19;5.70;99.90
12164;DHT22;6145;50.192;10.064;2024-02-14T06:36:46;5.60;99.90
12164;DHT22;6145;50.192;10.064;2024-02-14T06:39:13;5.70;99.90
12164;DHT22;6145;50.192;10.064;2024-02-14T06:41:41;5.70;99.90
12164;DHT22;6145;50.192;10.064;2024-02-14T06:44:09;5.70;99.90
12164;DHT22;6145;50.192;10.064;2024-02-14T06:46:36;5.70;99.90
12164;DHT22;6145;50.192;10.064;2024-02-14T06:49:03;5.70;99.90
12164;DHT22;6145;50.192;10.064;2024-02-14T06:51:30;5.80;99.90
12164;DHT22;6145;50.192;10.064;2024-02-14T06:53:56;5.80;99.90
12164;DHT22;6145;50.192;10.064;2024-02-14T06:56:23;5.80;99.90
12164;DHT22;6145;50.192;10.064;2024-02-14T06:58:51;5.90;99.90
12164;DHT22;6145;50.192;10.064;2024-02-14T07:01:25;5.90;99.90
12164;DHT22;6145;50.192;10.064;2024-02-14T07:03:52;6.00;99.90
12164;DHT22;6145;50.192;10.064;2024-02-14T07:06:19;6.00;99.90
12164;DHT22;6145;50.192;10.064;2024-02-14T07:08:46;6.10;99.90
12164;DHT22;6145;50.192;10.064;2024-02-14T07:11:14;6.10;99.90
12164;DHT22;6145;50.192;10.064;2024-02-14T07:13:41;6.20;99.90
12164;DHT22;6145;50.192;10.064;2024-02-14T07:16:09;6.20;99.90
12164;DHT22;6145;50.192;10.064;2024-02-14T07:18:36;6.30;99.90
12164;DHT22;6145;50.192;10.064;2024-02-14T07:21:03;6.30;99.90
12164;DHT22;6145;50.192;10.064;2024-02-14T07:23:31;6.30;99.90
12164;DHT22;6145;50.192;10.064;2024-02-14T07:25:58;6.40;99.90
12164;DHT22;6145;50.192;10.064;2024-02-14T07:28:24;6.40;99.90
12164;DHT22;6145;50.192;10.064;2024-02-14T07:30:51;6.40;99.90
12164;DHT22;6145;50.192;10.064;2024-02-14T07:33:19;6.50;99.90
12164;DHT22;6145;50.192;10.064;2024-02-14T07:35:46;6.60;99.90
12164;DHT22;6145;50.192;10.064;2024-02-14T07:38:13;6.60;99.90
12164;DHT22;6145;50.192;10.064;2024-02-14T07:40:42;6.60;99.90
12164;DHT22;6145;50.192;10.064;2024-02-14T07:43:08;6.60;99.90
12164;DHT22;6145;50.192;10.064;2024-02-14T07:45:35;6.60;99.90
12164;DHT22;6145;50.192;10.064;2024-02-14T07:48:02;6.70;99.90
12164;DHT22;6145;50.192;10.064;2024-02-14T07:50:31;6.70;99.90
12164;DHT22;6145;50.192;10.064;2024-02-14T07:52:58;6.70;99.90
12164;DHT22;6145;50.192;10.064;2024-02-14T07:55:25;6.80;99.90
12164;DHT22;6145;50.192;10.064;2024-02-14T07:57:51;6.80;99.90
12164;DHT22;6145;50.192;10.064;2024-02-14T08:00:19;6.80;99.90
12164;DHT22;6145;50.192;10.064;2024-02-14T08:02:48;6.80;99.90
12164;DHT22;6145;50.192;10.064;2024-02-14T08:05:15;6.80;99.90
12164;DHT22;6145;50.192;10.064;2024-02-14T08:07:44;6.80;99.90
12164;DHT22;6145;50.192;10.064;2024-02-14T08:10:11;6.90;99.90
12164;DHT22;6145;50.192;10.064;2024-02-14T08:12:38;6.90;99.90
12164;DHT22;6145;50.192;10.064;2024-02-14T08:15:05;6.90;99.90
12164;DHT22;6145;50.192;10.064;2024-02-14T08:17:32;6.90;99.90
12164;DHT22;6145;50.192;10.064;2024-02-14T08:20:01;6.90;99.90
12164;DHT22;6145;50.192;10.064;2024-02-14T08:22:29;7.00;99.90
12164;DHT22;6145;50.192;10.064;2024-02-14T08:24:57;7.00;99.90
12164;DHT22;6145;50.192;10.064;2024-02-14T08:27:24;7.10;99.90
12164;DHT22;6145;50.192;10.064;2024-02-14T08:29:51;7.10;99.90
12164;DHT22;6145;50.192;10.064;2024-02-14T08:32:18;7.10;99.90
12164;DHT22;6145;50.192;10.064;2024-02-14T08:34:45;7.20;99.90
12164;DHT22;6145;50.192;10.064;2024-02-14T08:37:13;7.20;99.90
12164;DHT22;6145;50.192;10.064;2024-02-14T08:39:40;7.20;99.90
12164;DHT22;6145;50.192;10.064;2024-02-14T08:42:08;7.20;99.90
12164;DHT22;6145;50.192;10.064;2024-02-14T08:44:35;7.30;99.90
12164;DHT22;6145;50.192;10.064;2024-02-14T08:47:03;7.30;99.90
12164;DHT22;6145;50.192;10.064;2024-02-14T08:49:30;7.40;99.90
12164;DHT22;6145;50.192;10.064;2024-02-14T08:51:57;7.40;99.90
12164;DHT22;6145;50.192;10.064;2024-02-14T08:54:23;7.40;99.90
12164;DHT22;6145;50.192;10.064;2024-02-14T08:56:50;7.40;99.90
12164;DHT22;6145;50.192;10.064;2024-02-14T08:59:22;7.40;99.90
12164;DHT22;6145;50.192;10.064;2024-02-14T09:01:49;8.60;99.90
12164;DHT22;6145;50.192;10.064;2024-02-14T09:04:15;7.40;99.90
12164;DHT22;6145;50.192;10.064;2024-02-14T09:06:42;7.50;99.90
12164;DHT22;6145;50.192;10.064;2024-02-14T09:09:09;7.50;99.90
12164;DHT22;6145;50.192;10.064;2024-02-14T09:11:37;7.60;99.90
12164;DHT22;6145;50.192;10.064;2024-02-14T09:14:04;7.60;99.90
12164;DHT22;6145;50.192;10.064;2024-02-14T09:16:33;7.70;99.90
12164;DHT22;6145;50.192;10.064;2024-02-14T09:19:00;7.70;99.90
12164;DHT22;6145;50.192;10.064;2024-02-14T09:21:27;7.70;99.90
12164;DHT22;6145;50.192;10.064;2024-02-14T09:23:54;7.70;99.90
12164;DHT22;6145;50.192;10.064;2024-02-14T09:26:21;7.80;99.90
12164;DHT22;6145;50.192;10.064;2024-02-14T09:28:48;7.50;99.90
12164;DHT22;6145;50.192;10.064;2024-02-14T09:31:18;8.60;99.90
12164;DHT22;6145;50.192;10.064;2024-02-14T09:33:47;8.40;99.90
12164;DHT22;6145;50.192;10.064;2024-02-14T09:36:14;7.90;99.90
12164;DHT22;6145;50.192;10.064;2024-02-14T09:38:41;8.10;99.90
12164;DHT22;6145;50.192;10.064;2024-02-14T09:41:15;8.10;99.90
12164;DHT22;6145;50.192;10.064;2024-02-14T09:43:44;8.10;99.90
12164;DHT22;6145;50.192;10.064;2024-02-14T09:46:13;8.10;99.90
12164;DHT22;6145;50.192;10.064;2024-02-14T09:48:40;8.10;99.90
12164;DHT22;6145;50.192;10.064;2024-02-14T09:51:11;8.20;99.90
12164;DHT22;6145;50.192;10.064;2024-02-14T09:53:38;8.20;99.90
12164;DHT22;6145;50.192;10.064;2024-02-14T09:56:06;8.20;99.90
12164;DHT22;6145;50.192;10.064;2024-02-14T09:58:35;8.20;99.90
12164;DHT22;6145;50.192;10.064;2024-02-14T10:01:03;8.20;99.90
12164;DHT22;6145;50.192;10.064;2024-02-14T10:03:32;8.30;99.90
12164;DHT22;6145;50.192;10.064;2024-02-14T10:05:59;8.40;99.90
12164;DHT22;6145;50.192;10.064;2024-02-14T10:08:27;8.40;99.90
12164;DHT22;6145;50.192;10.064;2024-02-14T10:10:56;8.50;99.90
12164;DHT22;6145;50.192;10.064;2024-02-14T10:13:23;8.50;99.90
12164;DHT22;6145;50.192;10.064;2024-02-14T10:15:52;8.50;99.90
12164;DHT22;6145;50.192;10.064;2024-02-14T10:18:20;8.50;99.90
12164;DHT22;6145;50.192;10.064;2024-02-14T10:20:53;8.50;99.90
12164;DHT22;6145;50.192;10.064;2024-02-14T10:23:20;8.40;99.90
12164;DHT22;6145;50.192;10.064;2024-02-14T10:25:49;8.50;99.90
12164;DHT22;6145;50.192;10.064;2024-02-14T10:28:16;8.50;99.90
12164;DHT22;6145;50.192;10.064;2024-02-14T10:30:45;8.60;99.90
12164;DHT22;6145;50.192;10.064;2024-02-14T10:33:12;8.70;99.90
12164;DHT22;6145;50.192;10.064;2024-02-14T10:35:41;8.90;99.90
12164;DHT22;6145;50.192;10.064;2024-02-14T10:38:08;9.00;99.90
12164;DHT22;6145;50.192;10.064;2024-02-14T10:40:36;9.10;99.90
12164;DHT22;6145;50.192;10.064;2024-02-14T10:43:06;9.20;99.90
12164;DHT22;6145;50.192;10.064;2024-02-14T10:45:35;9.30;99.90
12164;DHT22;6145;50.192;10.064;2024-02-14T10:48:04;9.30;99.90
12164;DHT22;6145;50.192;10.064;2024-02-14T10:50:33;9.30;99.90
12164;DHT22;6145;50.192;10.064;2024-02-14T10:53:04;9.30;99.90
12164;DHT22;6145;50.192;10.064;2024-02-14T10:55:33;9.40;99.90
12164;DHT22;6145;50.192;10.064;2024-02-14T10:58:01;8.60;99.90
12164;DHT22;6145;50.192;10.064;2024-02-14T11:00:30;9.80;99.90
12164;DHT22;6145;50.192;10.064;2024-02-14T11:02:59;9.40;99.90
12164;DHT22;6145;50.192;10.064;2024-02-14T11:05:27;9.40;99.90
12164;DHT22;6145;50.192;10.064;2024-02-14T11:07:54;9.40;99.90
12164;DHT22;6145;50.192;10.064;2024-02-14T11:10:22;9.40;99.90
12164;DHT22;6145;50.192;10.064;2024-02-14T11:12:49;9.40;99.90
12164;DHT22;6145;50.192;10.064;2024-02-14T11:15:17;9.30;99.90
12164;DHT22;6145;50.192;10.064;2024-02-14T11:17:46;11.00;99.90
12164;DHT22;6145;50.192;10.064;2024-02-14T11:20:18;9.50;99.90
12164;DHT22;6145;50.192;10.064;2024-02-14T11:22:54;9.60;99.90
12164;DHT22;6145;50.192;10.064;2024-02-14T11:25:23;9.70;99.90
12164;DHT22;6145;50.192;10.064;2024-02-14T11:27:55;9.60;99.90
12164;DHT22;6145;50.192;10.064;2024-02-14T11:30:29;9.70;99.90
12164;DHT22;6145;50.192;10.064;2024-02-14T11:33:13;9.80;99.90
12164;DHT22;6145;50.192;10.064;2024-02-14T11:35:42;9.90;99.90
12164;DHT22;6145;50.192;10.064;2024-02-14T11:38:09;9.90;99.90
12164;DHT22;6145;50.192;10.064;2024-02-14T11:40:36;9.90;99.90
12164;DHT22;6145;50.192;10.064;2024-02-14T11:43:05;10.00;99.90
12164;DHT22;6145;50.192;10.064;2024-02-14T11:45:32;10.10;99.90
12164;DHT22;6145;50.192;10.064;2024-02-14T11:48:00;10.10;99.90
12164;DHT22;6145;50.192;10.064;2024-02-14T11:50:28;10.20;99.90
12164;DHT22;6145;50.192;10.064;2024-02-14T11:52:55;10.30;99.90
12164;DHT22;6145;50.192;10.064;2024-02-14T11:55:27;10.30;99.90
12164;DHT22;6145;50.192;10.064;2024-02-14T11:57:55;10.40;99.90
12164;DHT22;6145;50.192;10.064;2024-02-14T12:00:23;10.50;99.90
12164;DHT22;6145;50.192;10.064;2024-02-14T12:02:51;10.50;99.90
12164;DHT22;6145;50.192;10.064;2024-02-14T12:05:18;10.70;99.90
12164;DHT22;6145;50.192;10.064;2024-02-14T12:07:47;10.90;99.90
12164;DHT22;6145;50.192;10.064;2024-02-14T12:10:14;10.90;99.90
12164;DHT22;6145;50.192;10.064;2024-02-14T12:12:45;11.60;99.90
12164;DHT22;6145;50.192;10.064;2024-02-14T12:15:12;11.10;99.90
12164;DHT22;6145;50.192;10.064;2024-02-14T12:17:41;11.10;99.90
12164;DHT22;6145;50.192;10.064;2024-02-14T12:20:09;11.20;99.90
12164;DHT22;6145;50.192;10.064;2024-02-14T12:22:39;11.20;99.90
12164;DHT22;6145;50.192;10.064;2024-02-14T12:25:08;11.40;99.90
12164;DHT22;6145;50.192;10.064;2024-02-14T12:27:36;11.30;99.90
12164;DHT22;6145;50.192;10.064;2024-02-14T12:30:05;11.20;99.90
12164;DHT22;6145;50.192;10.064;2024-02-14T12:32:33;11.80;99.90
12164;DHT22;6145;50.192;10.064;2024-02-14T12:35:00;11.90;99.90
12164;DHT22;6145;50.192;10.064;2024-02-14T12:37:27;12.00;99.90
12164;DHT22;6145;50.192;10.064;2024-02-14T12:39:54;11.80;99.90
12164;DHT22;6145;50.192;10.064;2024-02-14T12:42:23;11.30;99.90
12164;DHT22;6145;50.192;10.064;2024-02-14T12:44:54;11.80;99.90
12164;DHT22;6145;50.192;10.064;2024-02-14T12:47:21;11.80;99.90
12164;DHT22;6145;50.192;10.064;2024-02-14T12:49:48;11.80;99.90
12164;DHT22;6145;50.192;10.064;2024-02-14T12:52:15;11.70;99.90
12164;DHT22;6145;50.192;10.064;2024-02-14T12:54:43;11.60;99.90
12164;DHT22;6145;50.192;10.064;2024-02-14T12:57:12;11.60;99.90
12164;DHT22;6145;50.192;10.064;2024-02-14T12:59:40;12.00;99.90
12164;DHT22;6145;50.192;10.064;2024-02-14T13:02:07;11.70;99.90
12164;DHT22;6145;50.192;10.064;2024-02-14T13:04:34;11.70;99.90
12164;DHT22;6145;50.192;10.064;2024-02-14T13:07:01;11.80;99.90
12164;DHT22;6145;50.192;10.064;2024-02-14T13:09:28;10.90;99.90
12164;DHT22;6145;50.192;10.064;2024-02-14T13:11:55;12.10;99.90
12164;DHT22;6145;50.192;10.064;2024-02-14T13:14:22;12.30;99.90
12164;DHT22;6145;50.192;10.064;2024-02-14T13:16:50;12.20;99.90
12164;DHT22;6145;50.192;10.064;2024-02-14T13:19:17;12.20;99.90
12164;DHT22;6145;50.192;10.064;2024-02-14T13:21:44;12.10;99.90
12164;DHT22;6145;50.192;10.064;2024-02-14T13:24:12;12.00;99.90
12164;DHT22;6145;50.192;10.064;2024-02-14T13:26:39;12.00;99.90
12164;DHT22;6145;50.192;10.064;2024-02-14T13:29:06;12.10;99.90
12164;DHT22;6145;50.192;10.064;2024-02-14T13:31:33;12.10;99.90
12164;DHT22;6145;50.192;10.064;2024-02-14T13:34:01;12.10;99.90
12164;DHT22;6145;50.192;10.064;2024-02-14T13:36:29;12.00;99.90
12164;DHT22;6145;50.192;10.064;2024-02-14T13:38:56;12.00;99.90
12164;DHT22;6145;50.192;10.064;2024-02-14T13:41:23;11.90;99.90
12164;DHT22;6145;50.192;10.064;2024-02-14T13:43:49;12.00;99.90
12164;DHT22;6145;50.192;10.064;2024-02-14T13:46:16;11.90;99.90
12164;DHT22;6145;50.192;10.064;2024-02-14T13:48:44;12.10;99.90
12164;DHT22;6145;50.192;10.064;2024-02-14T13:51:12;11.90;99.90
12164;DHT22;6145;50.192;10.064;2024-02-14T13:53:38;12.30;99.90
12164;DHT22;6145;50.192;10.064;2024-02-14T13:56:06;12.10;99.90
12164;DHT22;6145;50.192;10.064;2024-02-14T13:58:33;12.20;99.90
12164;DHT22;6145;50.192;10.064;2024-02-14T14:00:59;12.40;99.90
12164;DHT22;6145;50.192;10.064;2024-02-14T14:03:26;12.30;99.90
12164;DHT22;6145;50.192;10.064;2024-02-14T14:05:55;12.10;99.90
12164;DHT22;6145;50.192;10.064;2024-02-14T14:08:23;12.00;99.90
12164;DHT22;6145;50.192;10.064;2024-02-14T14:10:50;11.90;99.90
12164;DHT22;6145;50.192;10.064;2024-02-14T14:13:20;11.90;99.90
12164;DHT22;6145;50.192;10.064;2024-02-14T14:15:46;11.60;99.90
12164;DHT22;6145;50.192;10.064;2024-02-14T14:18:13;11.60;99.90
12164;DHT22;6145;50.192;10.064;2024-02-14T14:20:40;11.50;99.90
12164;DHT22;6145;50.192;10.064;2024-02-14T14:23:07;11.50;99.90
12164;DHT22;6145;50.192;10.064;2024-02-14T14:25:35;11.40;99.90
12164;DHT22;6145;50.192;10.064;2024-02-14T14:28:03;11.30;99.90
12164;DHT22;6145;50.192;10.064;2024-02-14T14:30:30;11.30;99.90
12164;DHT22;6145;50.192;10.064;2024-02-14T14:32:57;11.30;99.90
12164;DHT22;6145;50.192;10.064;2024-02-14T14:35:23;12.20;99.90
12164;DHT22;6145;50.192;10.064;2024-02-14T14:37:50;11.30;99.90
12164;DHT22;6145;50.192;10.064;2024-02-14T14:40:17;11.30;99.90
12164;DHT22;6145;50.192;10.064;2024-02-14T14:42:45;11.20;99.90
12164;DHT22;6145;50.192;10.064;2024-02-14T14:45:12;11.20;99.90
12164;DHT22;6145;50.192;10.064;2024-02-14T14:47:39;11.10;99.90
12164;DHT22;6145;50.192;10.064;2024-02-14T14:50:05;11.10;99.90
12164;DHT22;6145;50.192;10.064;2024-02-14T14:52:33;11.00;99.90
12164;DHT22;6145;50.192;10.064;2024-02-14T14:55:00;11.00;99.90
12164;DHT22;6145;50.192;10.064;2024-02-14T14:57:27;11.00;99.90
12164;DHT22;6145;50.192;10.064;2024-02-14T14:59:55;11.00;99.90
12164;DHT22;6145;50.192;10.064;2024-02-14T15:02:22;11.00;99.90
12164;DHT22;6145;50.192;10.064;2024-02-14T15:04:49;11.00;99.90
12164;DHT22;6145;50.192;10.064;2024-02-14T15:07:16;11.00;99.90
12164;DHT22;6145;50.192;10.064;2024-02-14T15:09:45;11.00;99.90
12164;DHT22;6145;50.192;10.064;2024-02-14T15:12:13;11.00;99.90
12164;DHT22;6145;50.192;10.064;2024-02-14T15:14:39;11.00;99.90
12164;DHT22;6145;50.192;10.064;2024-02-14T15:17:07;10.90;99.90
12164;DHT22;6145;50.192;10.064;2024-02-14T15:19:34;11.00;99.90
12164;DHT22;6145;50.192;10.064;2024-02-14T15:22:01;10.90;99.90
12164;DHT22;6145;50.192;10.064;2024-02-14T15:24:28;11.00;99.90
12164;DHT22;6145;50.192;10.064;2024-02-14T15:26:55;10.90;99.90
12164;DHT22;6145;50.192;10.064;2024-02-14T15:29:26;10.90;99.90
12164;DHT22;6145;50.192;10.064;2024-02-14T15:32:11;10.90;99.90
12164;DHT22;6145;50.192;10.064;2024-02-14T15:34:56;10.90;99.90
12164;DHT22;6145;50.192;10.064;2024-02-14T15:37:23;10.90;99.90
12164;DHT22;6145;50.192;10.064;2024-02-14T15:39:49;10.90;99.90
12164;DHT22;6145;50.192;10.064;2024-02-14T15:42:17;10.90;99.90
12164;DHT22;6145;50.192;10.064;2024-02-14T15:44:44;10.90;99.90